createdAt,value
2017-12-25T00:01:27.518Z,4.49
2017-12-25T00:03:54.965Z,4.43
2017-12-25T00:06:23.056Z,4.41
2017-12-25T00:08:50.517Z,4.43
2017-12-25T00:11:17.969Z,4.40
2017-12-25T00:13:45.739Z,4.40
2017-12-25T00:16:13.198Z,4.38
2017-12-25T00:18:40.658Z,4.40
2017-12-25T00:21:08.418Z,4.38
2017-12-25T00:23:35.878Z,4.33
2017-12-25T00:26:03.328Z,4.38
2017-12-25T00:28:31.036Z,4.36
2017-12-25T00:30:58.507Z,4.40
2017-12-25T00:33:25.973Z,4.34
2017-12-25T00:35:53.792Z,4.33
2017-12-25T00:38:21.256Z,4.29
2017-12-25T00:40:48.710Z,4.29
2017-12-25T00:43:16.470Z,4.34
2017-12-25T00:45:43.933Z,4.32
2017-12-25T00:48:11.384Z,4.37
2017-12-25T00:50:39.172Z,4.40
2017-12-25T00:53:06.634Z,4.37
2017-12-25T00:55:34.096Z,4.45
2017-12-25T00:58:01.876Z,4.46
2017-12-25T01:00:30.001Z,4.43
2017-12-25T01:02:57.458Z,4.42
2017-12-25T01:05:25.468Z,4.45
2017-12-25T01:07:52.929Z,4.46
2017-12-25T01:10:20.391Z,4.43
2017-12-25T01:12:48.154Z,4.51
2017-12-25T01:15:15.618Z,4.58
2017-12-25T01:17:43.078Z,4.57
2017-12-25T01:20:10.830Z,4.57
2017-12-25T01:22:39.059Z,4.51
2017-12-25T01:25:06.532Z,4.59
2017-12-25T01:27:34.243Z,4.52
2017-12-25T01:30:01.705Z,4.56
2017-12-25T01:32:29.165Z,4.56
2017-12-25T01:34:56.817Z,4.54
2017-12-25T01:37:24.269Z,4.56
2017-12-25T01:39:53.125Z,4.57
2017-12-25T01:42:21.038Z,4.56
2017-12-25T01:44:48.502Z,4.56
2017-12-25T01:47:15.952Z,4.58
2017-12-25T01:49:43.725Z,4.61
2017-12-25T01:52:11.185Z,4.60
2017-12-25T01:54:38.643Z,4.55
2017-12-25T02:00:04.126Z,4.55
2017-12-25T02:02:35.437Z,4.54
2017-12-25T02:05:07.539Z,4.50
2017-12-25T02:07:47.265Z,4.50
2017-12-25T02:10:14.728Z,4.49
2017-12-25T02:12:42.189Z,4.51
2017-12-25T02:15:09.947Z,4.50
2017-12-25T02:17:37.404Z,4.47
2017-12-25T02:20:04.872Z,4.50
2017-12-25T02:22:32.624Z,4.52
2017-12-25T02:25:00.082Z,4.53
2017-12-25T02:27:27.537Z,4.52
2017-12-25T02:29:55.636Z,4.52
2017-12-25T02:32:23.088Z,4.41
2017-12-25T02:34:50.564Z,4.41
2017-12-25T02:37:18.308Z,4.36
2017-12-25T02:39:45.765Z,4.37
2017-12-25T02:42:13.218Z,4.32
2017-12-25T02:44:41.000Z,4.29
2017-12-25T02:47:08.474Z,4.28
2017-12-25T02:49:35.933Z,4.32
2017-12-25T02:52:03.685Z,4.34
2017-12-25T02:54:31.190Z,4.37
2017-12-25T02:56:58.632Z,4.34
2017-12-25T02:59:26.385Z,4.37
2017-12-25T03:01:53.844Z,4.34
2017-12-25T03:04:21.719Z,4.36
2017-12-25T03:06:49.369Z,4.38
2017-12-25T03:09:16.827Z,4.35
2017-12-25T03:11:44.285Z,4.39
2017-12-25T03:14:12.349Z,4.31
2017-12-25T03:16:39.800Z,4.34
2017-12-25T03:19:07.256Z,4.37
2017-12-25T03:21:35.126Z,4.35
2017-12-25T03:24:02.584Z,4.28
2017-12-25T03:26:30.036Z,4.32
2017-12-25T03:28:58.037Z,4.27
2017-12-25T03:31:25.490Z,4.26
2017-12-25T03:33:52.948Z,4.26
2017-12-25T03:36:20.745Z,4.25
2017-12-25T03:38:48.206Z,4.29
2017-12-25T03:41:15.660Z,4.26
2017-12-25T03:43:43.449Z,4.25
2017-12-25T03:46:10.911Z,4.24
2017-12-25T03:48:38.365Z,4.16
2017-12-25T03:51:06.079Z,4.20
2017-12-25T03:53:33.533Z,4.13
2017-12-25T03:56:00.992Z,4.14
2017-12-25T03:58:28.792Z,4.12
2017-12-25T04:00:56.258Z,4.14
2017-12-25T04:03:23.720Z,4.14
2017-12-25T04:05:51.817Z,4.05
2017-12-25T04:08:19.291Z,4.07
2017-12-25T04:10:46.750Z,4.12
2017-12-25T04:13:14.475Z,4.03
2017-12-25T04:15:41.948Z,3.97
2017-12-25T04:18:09.410Z,4.00
2017-12-25T04:20:37.169Z,4.00
2017-12-25T04:23:04.625Z,3.99
2017-12-25T04:25:32.093Z,3.94
2017-12-25T04:28:00.145Z,4.05
2017-12-25T04:30:27.609Z,3.99
2017-12-25T04:32:55.074Z,3.96
2017-12-25T04:35:23.153Z,3.98
2017-12-25T04:37:50.627Z,3.96
2017-12-25T04:40:18.076Z,3.89
2017-12-25T04:42:46.146Z,3.84
2017-12-25T04:45:13.610Z,3.81
2017-12-25T04:47:41.069Z,4.43
2017-12-25T04:50:08.837Z,4.14
2017-12-25T04:52:36.298Z,3.98
2017-12-25T04:55:03.760Z,3.87
2017-12-25T04:57:31.814Z,3.83
2017-12-25T04:59:59.278Z,3.87
2017-12-25T05:02:26.735Z,3.79
2017-12-25T05:04:54.449Z,3.85
2017-12-25T05:07:22.660Z,3.80
2017-12-25T05:09:50.118Z,3.77
2017-12-25T05:12:17.821Z,3.82
2017-12-25T05:14:45.274Z,3.78
2017-12-25T05:17:12.739Z,3.81
2017-12-25T05:19:40.508Z,3.80
2017-12-25T05:22:07.980Z,3.78
2017-12-25T05:24:35.438Z,3.79
2017-12-25T05:27:03.201Z,3.77
2017-12-25T05:29:30.653Z,3.71
2017-12-25T05:31:58.109Z,3.79
2017-12-25T05:34:25.873Z,3.73
2017-12-25T05:36:53.338Z,3.66
2017-12-25T05:39:20.800Z,3.67
2017-12-25T05:41:48.863Z,3.67
2017-12-25T05:44:16.315Z,3.64
2017-12-25T05:46:43.768Z,3.66
2017-12-25T05:49:11.554Z,3.68
2017-12-25T05:51:39.008Z,3.65
2017-12-25T05:54:06.464Z,3.63
2017-12-25T05:56:34.221Z,3.69
2017-12-25T05:59:01.673Z,3.71
2017-12-25T06:01:29.138Z,3.65
2017-12-25T06:03:56.929Z,3.71
2017-12-25T06:06:24.386Z,3.66
2017-12-25T06:08:54.682Z,3.71
2017-12-25T06:11:22.369Z,3.68
2017-12-25T06:13:49.825Z,3.66
2017-12-25T06:16:17.276Z,3.73
2017-12-25T06:18:45.060Z,3.71
2017-12-25T06:21:12.537Z,3.70
2017-12-25T06:23:39.993Z,3.65
2017-12-25T06:26:07.753Z,3.58
2017-12-25T06:28:35.206Z,3.61
2017-12-25T06:31:02.656Z,3.65
2017-12-25T06:33:30.430Z,3.57
2017-12-25T06:35:57.881Z,3.59
2017-12-25T06:38:25.337Z,3.53
2017-12-25T06:40:53.428Z,3.52
2017-12-25T06:43:20.889Z,3.51
2017-12-25T06:45:48.349Z,3.47
2017-12-25T06:48:15.970Z,3.53
2017-12-25T06:50:43.424Z,3.52
2017-12-25T06:53:10.880Z,3.41
2017-12-25T06:55:38.592Z,3.40
2017-12-25T06:58:06.043Z,3.43
2017-12-25T07:00:33.553Z,3.43
2017-12-25T07:03:01.185Z,3.41
2017-12-25T07:05:28.643Z,3.44
2017-12-25T07:07:56.094Z,3.50
2017-12-25T07:10:24.798Z,3.52
2017-12-25T07:12:52.253Z,3.44
2017-12-25T07:15:19.718Z,3.46
2017-12-25T07:17:47.498Z,3.45
2017-12-25T07:20:14.966Z,3.44
2017-12-25T07:22:42.422Z,3.46
2017-12-25T07:25:10.459Z,3.52
2017-12-25T07:27:37.908Z,3.53
2017-12-25T07:30:05.371Z,3.51
2017-12-25T07:32:33.168Z,3.48
2017-12-25T07:35:00.641Z,3.48
2017-12-25T07:37:28.109Z,3.54
2017-12-25T07:39:55.846Z,3.61
2017-12-25T07:42:23.302Z,3.61
2017-12-25T07:44:50.756Z,3.74
2017-12-25T07:47:18.548Z,3.70
2017-12-25T07:49:46.005Z,3.67
2017-12-25T07:52:13.469Z,3.62
2017-12-25T07:54:41.222Z,3.64
2017-12-25T07:57:08.688Z,3.61
2017-12-25T07:59:36.140Z,3.68
2017-12-25T08:02:03.875Z,3.72
2017-12-25T08:04:31.330Z,3.76
2017-12-25T08:06:58.785Z,3.75
2017-12-25T08:09:26.593Z,3.72
2017-12-25T08:11:54.738Z,3.76
2017-12-25T08:14:22.189Z,3.74
2017-12-25T08:16:50.510Z,3.74
2017-12-25T08:19:17.969Z,3.83
2017-12-25T08:21:45.425Z,3.80
2017-12-25T08:24:13.198Z,3.87
2017-12-25T08:26:40.651Z,3.90
2017-12-25T08:29:08.102Z,3.80
2017-12-25T08:31:36.498Z,3.81
2017-12-25T08:34:03.949Z,3.89
2017-12-25T08:36:31.406Z,3.83
2017-12-25T08:38:59.197Z,3.86
2017-12-25T08:41:26.649Z,3.85
2017-12-25T08:43:54.112Z,3.93
2017-12-25T08:46:21.841Z,3.97
2017-12-25T08:48:49.295Z,3.90
2017-12-25T08:51:16.753Z,3.90
2017-12-25T08:53:44.482Z,3.81
2017-12-25T08:56:11.952Z,3.84
2017-12-25T08:58:39.402Z,3.83
2017-12-25T09:01:07.253Z,3.92
2017-12-25T09:03:34.709Z,4.01
2017-12-25T09:06:02.181Z,4.01
2017-12-25T09:08:29.940Z,4.04
2017-12-25T09:10:57.390Z,4.06
2017-12-25T09:13:25.174Z,3.98
2017-12-25T09:15:52.936Z,4.09
2017-12-25T09:18:20.400Z,4.05
2017-12-25T09:20:47.870Z,4.12
2017-12-25T09:23:15.845Z,4.18
2017-12-25T09:25:43.292Z,4.02
2017-12-25T09:28:10.751Z,4.30
2017-12-25T09:30:38.922Z,4.37
2017-12-25T09:33:06.370Z,4.52
2017-12-25T09:35:33.820Z,4.50
2017-12-25T09:38:01.610Z,4.57
2017-12-25T09:40:29.070Z,4.41
2017-12-25T09:42:56.512Z,4.49
2017-12-25T09:45:24.297Z,4.62
2017-12-25T09:47:51.748Z,4.65
2017-12-25T09:50:19.198Z,4.59
2017-12-25T09:52:46.974Z,4.57
2017-12-25T09:55:14.423Z,4.55
2017-12-25T09:57:41.878Z,4.60
2017-12-25T10:00:09.661Z,4.65
2017-12-25T10:02:37.109Z,4.75
2017-12-25T10:05:04.565Z,4.82
2017-12-25T10:07:32.352Z,4.88
2017-12-25T10:09:59.816Z,4.77
2017-12-25T10:12:27.283Z,4.46
2017-12-25T10:14:57.186Z,4.89
2017-12-25T10:17:24.637Z,4.89
2017-12-25T10:19:52.093Z,4.98
2017-12-25T10:22:19.824Z,4.98
2017-12-25T10:24:47.285Z,4.91
2017-12-25T10:27:14.742Z,4.83
2017-12-25T10:29:42.570Z,4.67
2017-12-25T10:32:10.021Z,4.77
2017-12-25T10:34:37.477Z,4.67
2017-12-25T10:37:05.557Z,4.80
2017-12-25T10:39:33.001Z,4.82
2017-12-25T10:42:00.454Z,4.81
2017-12-25T10:44:28.245Z,4.87
2017-12-25T10:46:55.702Z,4.88
2017-12-25T10:49:23.162Z,4.72
2017-12-25T10:51:50.959Z,4.77
2017-12-25T10:54:18.416Z,4.86
2017-12-25T10:56:45.873Z,5.03
2017-12-25T10:59:13.922Z,5.03
2017-12-25T11:01:41.381Z,5.15
2017-12-25T11:04:08.826Z,4.86
2017-12-25T11:06:36.610Z,4.52
2017-12-25T11:09:04.066Z,4.44
2017-12-25T11:11:31.515Z,4.48
2017-12-25T11:13:59.319Z,4.59
2017-12-25T11:16:27.449Z,4.82
2017-12-25T11:18:54.894Z,4.83
2017-12-25T11:21:22.651Z,4.88
2017-12-25T11:23:50.111Z,4.93
2017-12-25T11:26:17.574Z,4.96
2017-12-25T11:28:45.297Z,5.10
2017-12-25T11:31:12.760Z,4.97
2017-12-25T11:33:40.218Z,5.15
2017-12-25T11:36:07.974Z,5.11
2017-12-25T11:38:35.422Z,5.15
2017-12-25T11:41:02.878Z,5.13
2017-12-25T11:43:30.661Z,4.97
2017-12-25T11:45:58.115Z,4.76
2017-12-25T11:48:25.562Z,4.69
2017-12-25T11:50:53.357Z,5.19
2017-12-25T11:53:20.826Z,5.11
2017-12-25T11:55:48.270Z,4.56
2017-12-25T11:58:16.059Z,4.69
2017-12-25T12:00:43.502Z,4.75
2017-12-25T12:03:10.959Z,5.03
2017-12-25T12:05:38.731Z,5.15
2017-12-25T12:08:06.180Z,4.81
2017-12-25T12:10:33.633Z,5.21
2017-12-25T12:13:01.411Z,4.54
2017-12-25T12:15:28.889Z,4.76
2017-12-25T12:17:57.943Z,5.02
2017-12-25T12:20:25.781Z,5.34
2017-12-25T12:22:53.248Z,5.32
2017-12-25T12:25:20.715Z,5.24
2017-12-25T12:27:48.639Z,5.41
2017-12-25T12:30:16.090Z,5.19
2017-12-25T12:32:43.564Z,5.14
2017-12-25T12:35:11.605Z,5.37
2017-12-25T12:37:39.055Z,5.25
2017-12-25T12:40:06.511Z,5.35
2017-12-25T12:42:34.306Z,5.36
2017-12-25T12:45:01.909Z,5.44
2017-12-25T12:47:29.415Z,5.28
2017-12-25T12:49:57.441Z,5.25
2017-12-25T12:52:24.897Z,5.32
2017-12-25T12:54:52.353Z,5.29
2017-12-25T12:57:20.301Z,5.19
2017-12-25T12:59:47.746Z,5.33
2017-12-25T13:02:15.386Z,5.25
2017-12-25T13:04:43.058Z,5.16
2017-12-25T13:07:10.760Z,5.24
2017-12-25T13:09:38.221Z,4.87
2017-12-25T13:12:06.592Z,4.99
2017-12-25T13:14:34.966Z,4.98
2017-12-25T13:17:02.500Z,4.90
2017-12-25T13:19:30.868Z,4.86
2017-12-25T13:21:58.590Z,4.78
2017-12-25T13:24:26.652Z,4.65
2017-12-25T13:26:54.424Z,4.88
2017-12-25T13:29:21.897Z,4.78
2017-12-25T13:31:49.356Z,4.83
2017-12-25T13:34:17.105Z,4.76
2017-12-25T13:36:44.888Z,4.59
2017-12-25T13:39:12.985Z,4.58
2017-12-25T13:41:40.724Z,4.53
2017-12-25T13:44:08.572Z,4.52
2017-12-25T13:46:36.030Z,4.54
2017-12-25T13:49:04.630Z,4.44
2017-12-25T13:51:32.072Z,4.63
2017-12-25T13:53:59.606Z,4.71
2017-12-25T13:56:27.321Z,4.88
2017-12-25T13:58:54.766Z,4.71
2017-12-25T14:01:22.622Z,4.67
2017-12-25T14:03:50.325Z,4.45
2017-12-25T14:06:18.397Z,4.44
2017-12-25T14:08:45.850Z,4.38
2017-12-25T14:11:13.924Z,4.38
2017-12-25T14:13:41.374Z,4.33
2017-12-25T14:16:09.416Z,4.17
2017-12-25T14:18:37.229Z,4.18
2017-12-25T14:21:05.700Z,4.19
2017-12-25T14:23:33.153Z,4.03
2017-12-25T14:26:01.157Z,3.98
2017-12-25T14:28:28.637Z,3.81
2017-12-25T14:30:56.148Z,3.84
2017-12-25T14:33:23.861Z,3.93
2017-12-25T14:35:51.326Z,3.94
2017-12-25T14:38:18.806Z,3.89
2017-12-25T14:40:46.540Z,3.84
2017-12-25T14:43:14.003Z,3.71
2017-12-25T14:45:41.463Z,3.73
2017-12-25T14:48:09.377Z,3.63
2017-12-25T14:50:36.831Z,3.57
2017-12-25T14:53:04.288Z,3.49
2017-12-25T14:55:32.198Z,3.41
2017-12-25T14:57:59.730Z,3.41
2017-12-25T15:00:27.186Z,3.38
2017-12-25T15:02:54.941Z,3.30
2017-12-25T15:05:22.405Z,3.22
2017-12-25T15:07:49.863Z,3.18
2017-12-25T15:10:17.650Z,3.17
2017-12-25T15:12:45.094Z,3.04
2017-12-25T15:15:12.545Z,2.96
2017-12-25T15:17:40.412Z,2.87
2017-12-25T15:20:07.878Z,2.85
2017-12-25T15:22:36.188Z,2.88
2017-12-25T15:25:03.816Z,2.62
2017-12-25T15:27:31.278Z,2.53
2017-12-25T15:29:58.740Z,2.45
2017-12-25T15:32:26.556Z,2.36
2017-12-25T15:34:54.013Z,2.31
2017-12-25T15:37:21.473Z,2.19
2017-12-25T15:39:49.239Z,2.18
2017-12-25T15:42:16.737Z,2.12
2017-12-25T15:44:44.201Z,2.08
2017-12-25T15:47:11.932Z,1.99
2017-12-25T15:49:39.392Z,1.96
2017-12-25T15:52:06.844Z,1.98
2017-12-25T15:54:34.621Z,1.90
2017-12-25T15:57:02.082Z,1.88
2017-12-25T15:59:29.546Z,1.81
2017-12-25T16:01:57.618Z,1.76
2017-12-25T16:04:25.073Z,1.69
2017-12-25T16:06:52.533Z,1.66
2017-12-25T16:09:20.258Z,1.62
2017-12-25T16:11:47.719Z,1.67
2017-12-25T16:14:15.170Z,1.69
2017-12-25T16:16:42.987Z,1.64
2017-12-25T16:19:10.458Z,1.71
2017-12-25T16:21:37.916Z,1.84
2017-12-25T16:24:06.609Z,1.84
2017-12-25T16:26:34.078Z,1.89
2017-12-25T16:29:01.540Z,1.94
2017-12-25T16:31:29.230Z,2.06
2017-12-25T16:33:56.687Z,2.14
2017-12-25T16:36:24.136Z,2.16
2017-12-25T16:38:51.970Z,2.15
2017-12-25T16:41:19.423Z,2.22
2017-12-25T16:43:46.885Z,2.26
2017-12-25T16:46:14.656Z,2.22
2017-12-25T16:48:42.128Z,2.25
2017-12-25T16:51:09.587Z,2.25
2017-12-25T16:53:37.645Z,2.27
2017-12-25T16:56:05.097Z,2.28
2017-12-25T16:58:32.554Z,2.25
2017-12-25T17:01:00.350Z,2.30
2017-12-25T17:03:27.813Z,2.33
2017-12-25T17:05:55.278Z,2.33
2017-12-25T17:08:23.022Z,2.37
2017-12-25T17:10:50.477Z,2.32
2017-12-25T17:13:17.938Z,2.37
2017-12-25T17:15:45.715Z,2.37
2017-12-25T17:18:13.185Z,2.39
2017-12-25T17:20:40.650Z,2.33
2017-12-25T17:23:08.397Z,2.29
2017-12-25T17:25:36.546Z,2.46
2017-12-25T17:28:04.003Z,2.39
2017-12-25T17:30:32.015Z,2.31
2017-12-25T17:32:59.482Z,2.33
2017-12-25T17:35:26.936Z,2.29
2017-12-25T17:37:55.013Z,2.29
2017-12-25T17:40:22.472Z,2.31
2017-12-25T17:42:49.930Z,2.32
2017-12-25T17:45:17.711Z,2.27
2017-12-25T17:47:45.162Z,2.28
2017-12-25T17:50:12.626Z,2.28
2017-12-25T17:52:40.954Z,2.28
2017-12-25T17:55:08.416Z,2.33
2017-12-25T17:57:35.910Z,2.33
2017-12-25T18:00:03.675Z,2.35
2017-12-25T18:02:31.127Z,2.41
2017-12-25T18:04:58.581Z,2.43
2017-12-25T18:07:26.345Z,2.35
2017-12-25T18:09:53.802Z,2.36
2017-12-25T18:12:21.262Z,2.39
2017-12-25T18:14:49.053Z,2.38
2017-12-25T18:17:16.516Z,2.39
2017-12-25T18:19:43.977Z,2.43
2017-12-25T18:22:11.898Z,2.28
2017-12-25T18:24:39.361Z,2.30
2017-12-25T18:27:07.334Z,2.25
2017-12-25T18:29:35.348Z,2.27
2017-12-25T18:32:02.802Z,2.31
2017-12-25T18:34:30.250Z,2.23
2017-12-25T18:36:58.010Z,2.21
2017-12-25T18:39:25.537Z,2.26
2017-12-25T18:41:53.010Z,2.23
2017-12-25T18:44:20.725Z,2.27
2017-12-25T18:46:48.186Z,2.23
2017-12-25T18:49:15.648Z,2.19
2017-12-25T18:51:43.413Z,2.25
2017-12-25T18:54:10.873Z,2.19
2017-12-25T18:56:38.328Z,2.17
2017-12-25T18:59:07.022Z,2.15
2017-12-25T19:01:34.489Z,2.11
2017-12-25T19:04:01.955Z,2.13
2017-12-25T19:06:29.703Z,2.20
2017-12-25T19:08:57.157Z,2.16
2017-12-25T19:11:24.620Z,2.22
2017-12-25T19:13:52.389Z,2.09
2017-12-25T19:16:19.855Z,2.15
2017-12-25T19:18:47.345Z,2.14
2017-12-25T19:21:15.091Z,2.08
2017-12-25T19:23:42.557Z,2.13
2017-12-25T19:26:10.030Z,2.10
2017-12-25T19:28:38.682Z,2.10
2017-12-25T19:31:06.166Z,2.12
2017-12-25T19:33:33.625Z,2.07
2017-12-25T19:36:01.377Z,2.17
2017-12-25T19:38:28.880Z,2.14
2017-12-25T19:40:56.356Z,2.19
2017-12-25T19:43:24.793Z,2.19
2017-12-25T19:45:52.311Z,2.10
2017-12-25T19:48:19.778Z,2.11
2017-12-25T19:50:47.685Z,2.02
2017-12-25T19:53:15.154Z,2.04
2017-12-25T19:55:42.632Z,1.97
2017-12-25T19:58:10.683Z,1.98
2017-12-25T20:00:38.170Z,1.97
2017-12-25T20:03:05.631Z,2.02
2017-12-25T20:05:33.679Z,1.99
2017-12-25T20:08:01.140Z,2.25
2017-12-25T20:10:28.606Z,1.99
2017-12-25T20:12:56.393Z,1.93
2017-12-25T20:15:23.863Z,1.96
2017-12-25T20:17:51.334Z,1.98
2017-12-25T20:20:19.355Z,1.82
2017-12-25T20:22:46.805Z,1.87
2017-12-25T20:25:14.289Z,1.89
2017-12-25T20:27:42.355Z,1.86
2017-12-25T20:30:12.352Z,1.87
2017-12-25T20:32:39.825Z,1.80
2017-12-25T20:35:08.127Z,1.81
2017-12-25T20:37:35.607Z,1.88
2017-12-25T20:40:03.071Z,1.82
2017-12-25T20:42:30.783Z,1.91
2017-12-25T20:44:58.281Z,1.90
2017-12-25T20:47:25.762Z,1.84
2017-12-25T20:49:53.486Z,1.93
2017-12-25T20:52:20.958Z,1.71
2017-12-25T20:54:48.418Z,1.69
2017-12-25T20:57:16.150Z,1.78
2017-12-25T20:59:43.677Z,1.84
2017-12-25T21:02:11.119Z,1.78
2017-12-25T21:04:38.848Z,1.84
2017-12-25T21:07:06.322Z,1.60
2017-12-25T21:09:33.792Z,1.64
2017-12-25T21:12:01.550Z,1.72
2017-12-25T21:14:29.055Z,1.82
2017-12-25T21:16:56.519Z,1.77
2017-12-25T21:19:25.145Z,1.69
2017-12-25T21:21:52.609Z,1.82
2017-12-25T21:24:20.071Z,1.81
2017-12-25T21:26:47.824Z,1.69
2017-12-25T21:29:15.288Z,1.86
2017-12-25T21:31:44.060Z,1.73
2017-12-25T21:34:12.071Z,1.76
2017-12-25T21:36:39.527Z,1.80
2017-12-25T21:39:06.990Z,1.87
2017-12-25T21:41:34.745Z,1.71
2017-12-25T21:44:02.236Z,1.40
2017-12-25T21:46:29.707Z,1.42
2017-12-25T21:48:57.729Z,1.62
2017-12-25T21:51:25.184Z,1.66
2017-12-25T21:53:52.663Z,1.61
2017-12-25T21:56:20.591Z,1.44
2017-12-25T21:58:48.052Z,1.60
2017-12-25T22:01:15.517Z,1.58
2017-12-25T22:03:43.401Z,1.63
2017-12-25T22:06:10.867Z,1.57
2017-12-25T22:08:38.341Z,1.52
2017-12-25T22:11:06.097Z,1.61
2017-12-25T22:13:33.552Z,1.57
2017-12-25T22:16:01.023Z,1.56
2017-12-25T22:18:28.776Z,1.60
2017-12-25T22:20:56.234Z,1.66
2017-12-25T22:23:23.703Z,1.64
2017-12-25T22:25:51.476Z,1.65
2017-12-25T22:28:18.935Z,1.70
2017-12-25T22:30:46.403Z,1.66
2017-12-25T22:33:15.094Z,1.58
2017-12-25T22:35:42.546Z,1.60
2017-12-25T22:38:10.010Z,1.59
2017-12-25T22:40:37.764Z,1.54
2017-12-25T22:43:05.231Z,1.47
2017-12-25T22:45:32.692Z,1.44
2017-12-25T22:48:00.445Z,1.48
2017-12-25T22:50:27.901Z,1.46
2017-12-25T22:52:55.363Z,1.54
2017-12-25T22:55:23.084Z,1.34
2017-12-25T22:57:50.553Z,1.59
2017-12-25T23:00:18.016Z,1.64
2017-12-25T23:02:45.820Z,1.60
2017-12-25T23:05:13.286Z,1.48
2017-12-25T23:07:40.754Z,1.35
2017-12-25T23:10:08.511Z,1.35
2017-12-25T23:12:36.019Z,1.34
2017-12-25T23:15:03.487Z,1.33
2017-12-25T23:17:31.816Z,1.26
2017-12-25T23:19:59.274Z,1.22
2017-12-25T23:22:26.722Z,1.18
2017-12-25T23:24:54.507Z,1.20
2017-12-25T23:27:21.981Z,1.15
2017-12-25T23:29:49.441Z,1.23
2017-12-25T23:32:17.221Z,1.31
2017-12-25T23:34:45.033Z,1.27
2017-12-25T23:37:12.504Z,1.10
2017-12-25T23:39:41.085Z,1.16
2017-12-25T23:42:08.528Z,1.09
2017-12-25T23:44:36.005Z,1.09
2017-12-25T23:47:03.789Z,1.15
2017-12-25T23:49:31.253Z,1.20
2017-12-25T23:51:58.720Z,1.15
2017-12-25T23:54:26.482Z,1.00
2017-12-25T23:56:53.948Z,1.05
2017-12-25T23:59:21.402Z,1.07
